Time;durP1;ratioP1;P1;durP2;ratioP2;P2;SDS_P1;SDS_P2;PMS_P1;PMS_P2;Temp;Humidity;BMP_temperature;BMP_pressure;BME280_temperature;BME280_humidity;BME280_pressure;Samples;Min_cycle;Max_cycle;Signal;HPM_P1;HPM_P2
2022/07/12 03:00:36;;;;;;;0.70;0.60;;;18.90;74.50;;;;;;6026937;23;20478;31
2022/07/12 03:03:03;;;;;;;0.70;0.60;;;18.90;74.50;;;;;;4917803;29;20495;-71
2022/07/12 03:05:30;;;;;;;0.93;0.60;;;18.80;74.50;;;;;;4918995;29;20451;-71
2022/07/12 03:07:56;;;;;;;0.70;0.60;;;18.80;74.50;;;;;;4918838;29;20452;-71
2022/07/12 03:10:23;;;;;;;0.70;0.60;;;18.80;74.60;;;;;;4918360;29;20460;-70
2022/07/12 03:12:56;;;;;;;0.70;0.60;;;18.80;74.60;;;;;;4938349;29;20484;-71
2022/07/12 03:15:22;;;;;;;0.70;0.60;;;18.80;74.50;;;;;;4937759;29;20451;-71
2022/07/12 03:17:50;;;;;;;0.70;0.60;;;18.80;74.50;;;;;;4937642;29;20463;-71
2022/07/12 03:20:17;;;;;;;0.70;0.60;;;18.80;74.50;;;;;;4937284;29;20456;-71
2022/07/12 03:22:46;;;;;;;0.70;0.50;;;18.80;74.50;;;;;;4937350;29;20546;-71
2022/07/12 03:25:13;;;;;;;0.70;0.60;;;18.80;74.60;;;;;;4937381;29;20462;-71
2022/07/12 03:27:40;;;;;;;0.70;0.50;;;18.80;74.70;;;;;;4937643;29;20463;-71
2022/07/12 03:30:08;;;;;;;0.70;0.70;;;18.80;74.60;;;;;;4937233;29;20947;-71
2022/07/12 03:32:35;;;;;;;0.70;0.60;;;18.80;74.50;;;;;;4937309;29;20472;-71
2022/07/12 03:35:03;;;;;;;0.80;0.63;;;18.80;74.50;;;;;;4937491;29;20452;-71
2022/07/12 03:37:41;;;;;;;0.70;0.60;;;18.80;74.50;;;;;;4937470;29;20459;-71
2022/07/12 03:40:09;;;;;;;0.70;0.60;;;18.80;74.70;;;;;;4937052;29;20980;-71
2022/07/12 03:42:35;;;;;;;0.70;0.60;;;18.80;74.70;;;;;;4936949;29;20544;-71
2022/07/12 03:45:03;;;;;;;0.70;0.60;;;18.80;74.70;;;;;;4937168;29;20538;-71
2022/07/12 03:47:31;;;;;;;0.70;0.60;;;18.90;74.70;;;;;;4936816;29;20480;-71
2022/07/12 03:49:58;;;;;;;0.70;0.60;;;18.90;74.60;;;;;;4936749;29;20870;-71
2022/07/12 03:52:26;;;;;;;0.70;0.60;;;18.90;74.60;;;;;;4937015;29;20475;-71
2022/07/12 03:54:52;;;;;;;0.70;0.60;;;18.90;74.50;;;;;;4937139;29;20455;-71
2022/07/12 03:57:19;;;;;;;0.80;0.60;;;18.90;74.60;;;;;;4937183;29;20802;-71
2022/07/12 03:59:46;;;;;;;0.63;0.50;;;18.90;74.60;;;;;;4936806;29;20458;-72
2022/07/12 04:02:13;;;;;;;0.70;0.57;;;19.00;74.50;;;;;;4936664;29;20523;-71
2022/07/12 04:04:41;;;;;;;0.90;0.63;;;19.00;74.60;;;;;;4936883;29;20577;-71
2022/07/12 04:07:08;;;;;;;0.70;0.60;;;19.00;74.50;;;;;;4937342;29;20460;-71
2022/07/12 04:09:36;;;;;;;0.73;0.67;;;19.00;74.50;;;;;;4936704;29;20452;-71
2022/07/12 04:12:02;;;;;;;0.70;0.70;;;19.00;74.60;;;;;;4936205;29;20983;-72
2022/07/12 04:14:29;;;;;;;0.70;0.60;;;19.00;74.70;;;;;;4936614;29;20455;-71
2022/07/12 04:16:56;;;;;;;0.83;0.60;;;19.10;74.60;;;;;;4936676;29;20466;-71
2022/07/12 04:19:23;;;;;;;0.70;0.60;;;19.10;74.50;;;;;;4936528;29;20455;-71
2022/07/12 04:21:50;;;;;;;0.70;0.60;;;19.10;74.40;;;;;;4936393;29;20487;-71
2022/07/12 04:24:17;;;;;;;0.70;0.60;;;19.10;74.50;;;;;;4936510;29;20448;-71
2022/07/12 04:26:45;;;;;;;0.70;0.60;;;19.20;74.60;;;;;;4936446;29;20452;-71
2022/07/12 04:29:12;;;;;;;0.70;0.60;;;19.20;74.50;;;;;;4936641;29;20451;-71
2022/07/12 04:31:38;;;;;;;0.70;0.60;;;19.30;74.50;;;;;;4936587;29;20519;-71
2022/07/12 04:34:05;;;;;;;0.70;0.60;;;19.30;74.40;;;;;;4936509;29;20452;-71
2022/07/12 04:36:32;;;;;;;0.63;0.60;;;19.40;74.40;;;;;;4936521;29;20511;-71
2022/07/12 04:38:59;;;;;;;0.70;0.60;;;19.40;74.20;;;;;;4936483;29;20460;-71
2022/07/12 04:41:26;;;;;;;0.70;0.60;;;19.50;74.00;;;;;;4936401;29;20547;-71
2022/07/12 04:43:54;;;;;;;0.70;0.67;;;19.60;73.70;;;;;;4936032;29;21061;-71
2022/07/12 04:46:20;;;;;;;0.70;0.60;;;19.60;73.30;;;;;;4936500;29;20527;-71
2022/07/12 04:48:47;;;;;;;0.90;0.60;;;19.70;73.30;;;;;;4936696;29;20499;-71
2022/07/12 04:51:15;;;;;;;0.70;0.60;;;19.80;73.00;;;;;;4936333;29;20475;-71
2022/07/12 04:53:42;;;;;;;0.70;0.70;;;19.90;72.80;;;;;;4936483;29;20833;-71
2022/07/12 04:56:08;;;;;;;0.80;0.70;;;20.00;72.30;;;;;;4936174;29;20973;-71
2022/07/12 04:58:35;;;;;;;0.70;0.60;;;20.10;71.90;;;;;;4936520;29;20455;-71
2022/07/12 05:01:03;;;;;;;0.90;0.60;;;20.20;71.70;;;;;;4936301;29;20829;-72
2022/07/12 05:03:30;;;;;;;0.70;0.60;;;20.30;71.80;;;;;;4936153;29;20498;-71
2022/07/12 05:05:57;;;;;;;0.80;0.70;;;20.40;71.60;;;;;;4936633;29;20484;-71
2022/07/12 05:08:24;;;;;;;0.80;0.70;;;20.40;71.40;;;;;;4936296;29;20459;-71
2022/07/12 05:10:51;;;;;;;0.70;0.70;;;20.50;71.70;;;;;;4936146;29;20507;-71
2022/07/12 05:13:17;;;;;;;0.80;0.60;;;20.50;71.70;;;;;;4936139;29;20456;-72
2022/07/12 05:15:44;;;;;;;1.80;0.77;;;20.60;71.30;;;;;;4936093;29;20502;-71
2022/07/12 05:18:12;;;;;;;1.53;0.60;;;20.70;71.30;;;;;;4936081;29;20505;-72
2022/07/12 05:20:39;;;;;;;1.13;1.00;;;20.70;71.30;;;;;;4936138;29;20514;-71
2022/07/12 05:23:06;;;;;;;0.70;0.67;;;20.70;71.20;;;;;;4936201;29;20620;-71
2022/07/12 05:25:32;;;;;;;0.70;0.70;;;20.70;71.20;;;;;;4936245;29;20506;-72
2022/07/12 05:27:59;;;;;;;0.70;0.70;;;20.90;70.80;;;;;;4936144;29;20455;-71
2022/07/12 05:30:26;;;;;;;1.00;0.73;;;21.00;70.90;;;;;;4936136;29;20455;-71
2022/07/12 05:32:53;;;;;;;0.70;0.70;;;21.10;71.10;;;;;;4937059;29;20546;-71
2022/07/12 05:35:21;;;;;;;0.80;0.70;;;21.20;69.90;;;;;;4939347;29;20943;-71
2022/07/12 05:37:47;;;;;;;0.70;0.60;;;21.20;70.40;;;;;;4939483;29;20455;-72
2022/07/12 05:40:14;;;;;;;2.47;1.27;;;21.20;70.20;;;;;;4939629;29;20451;-72
2022/07/12 05:42:41;;;;;;;0.70;0.60;;;21.30;70.20;;;;;;4939246;29;20487;-71
2022/07/12 05:45:08;;;;;;;0.70;0.70;;;21.40;69.90;;;;;;4939340;29;20452;-72
2022/07/12 05:47:35;;;;;;;0.70;0.70;;;21.50;69.70;;;;;;4939294;29;20489;-71
2022/07/12 05:50:01;;;;;;;1.40;0.80;;;21.30;69.90;;;;;;4939118;29;20868;-71
2022/07/12 05:55:14;;;;;;;0.70;0.60;;;21.00;70.80;;;;;;4939010;29;20500;-71
2022/07/12 05:57:41;;;;;;;0.70;0.60;;;21.20;70.60;;;;;;4939222;29;20540;-71
2022/07/12 06:00:08;;;;;;;0.70;0.60;;;21.30;70.30;;;;;;4938908;29;20464;-72
2022/07/12 06:02:35;;;;;;;0.70;0.70;;;21.30;70.40;;;;;;4938271;29;20578;-70
2022/07/12 06:05:02;;;;;;;0.80;0.80;;;21.10;70.90;;;;;;4938732;29;20455;-70
2022/07/12 06:07:30;;;;;;;0.70;0.57;;;21.30;70.70;;;;;;4938838;29;20506;-70
2022/07/12 06:09:57;;;;;;;0.80;0.80;;;21.30;70.30;;;;;;4938550;29;20990;-70
2022/07/12 06:12:24;;;;;;;0.80;0.63;;;21.60;69.90;;;;;;4938505;29;20884;-71
2022/07/12 06:14:50;;;;;;;0.70;0.60;;;22.00;68.80;;;;;;4938540;29;20533;-71
2022/07/12 06:17:21;;;;;;;0.70;0.60;;;22.20;68.20;;;;;;4938435;29;20460;-70
2022/07/12 06:19:47;;;;;;;0.70;0.60;;;22.20;68.20;;;;;;4938403;29;20538;-70
2022/07/12 06:22:14;;;;;;;0.70;0.60;;;22.30;67.50;;;;;;4938139;29;20468;-71
2022/07/12 06:24:42;;;;;;;0.70;0.60;;;22.20;66.80;;;;;;4938347;29;20448;-71
2022/07/12 06:27:09;;;;;;;0.70;0.50;;;22.10;66.40;;;;;;4938333;29;20452;-71
2022/07/12 06:29:35;;;;;;;0.70;0.50;;;21.90;66.90;;;;;;4938011;29;20455;-71
2022/07/12 06:32:02;;;;;;;0.70;0.50;;;21.90;66.80;;;;;;4938038;29;20467;-70
2022/07/12 06:34:28;;;;;;;0.70;0.57;;;22.00;66.30;;;;;;4937760;29;20456;-70
2022/07/12 06:36:55;;;;;;;0.70;0.50;;;22.20;65.90;;;;;;4938037;29;20452;-70
2022/07/12 06:39:22;;;;;;;0.70;0.50;;;22.30;65.00;;;;;;4937991;29;20452;-71
2022/07/12 06:41:50;;;;;;;0.70;0.50;;;22.40;64.60;;;;;;4937819;29;20475;-71
2022/07/12 06:44:16;;;;;;;0.70;0.50;;;22.40;65.30;;;;;;4936750;29;20566;-70
2022/07/12 06:46:43;;;;;;;0.63;0.50;;;22.50;64.10;;;;;;4937633;29;20452;-71
2022/07/12 06:49:10;;;;;;;0.70;0.50;;;22.30;63.30;;;;;;4937862;29;20448;-70
2022/07/12 06:51:39;;;;;;;0.70;0.60;;;22.30;63.70;;;;;;4937720;29;20472;-70
2022/07/12 06:54:06;;;;;;;0.70;0.50;;;22.30;64.50;;;;;;4937715;29;20451;-70
2022/07/12 06:56:32;;;;;;;0.70;0.60;;;22.50;64.60;;;;;;4937362;29;20901;-71
2022/07/12 06:59:00;;;;;;;0.70;0.50;;;22.40;63.60;;;;;;4937301;29;20892;-71
2022/07/12 07:01:27;;;;;;;0.70;0.50;;;22.30;64.40;;;;;;4937158;29;20476;-71
2022/07/12 07:03:54;;;;;;;0.70;0.60;;;22.30;64.10;;;;;;4937563;29;20538;-71
2022/07/12 07:06:20;;;;;;;0.63;0.53;;;22.30;64.30;;;;;;4938354;29;20507;-70
2022/07/12 07:08:47;;;;;;;0.70;0.57;;;22.10;66.00;;;;;;4937525;29;20448;-70
2022/07/12 07:11:13;;;;;;;0.70;0.50;;;22.10;66.00;;;;;;4937403;29;20467;-70
2022/07/12 07:13:40;;;;;;;0.70;0.60;;;22.20;64.90;;;;;;4937412;29;20456;-70
2022/07/12 07:16:09;;;;;;;0.70;0.60;;;22.40;64.70;;;;;;4937587;29;20452;-71
2022/07/12 07:18:35;;;;;;;1.20;0.60;;;22.70;65.00;;;;;;4937626;29;20470;-70
2022/07/12 07:21:02;;;;;;;0.70;0.60;;;22.80;65.60;;;;;;4937563;29;20855;-71
2022/07/12 07:23:29;;;;;;;0.63;0.50;;;22.80;64.80;;;;;;4937070;29;20885;-71
2022/07/12 07:25:55;;;;;;;0.70;0.60;;;22.80;63.80;;;;;;4937514;29;20482;-71
2022/07/12 07:28:22;;;;;;;0.70;0.50;;;22.80;64.10;;;;;;4937375;29;20484;-70
2022/07/12 07:30:54;;;;;;;0.63;0.50;;;22.70;64.10;;;;;;4937326;29;20480;-71
2022/07/12 07:33:22;;;;;;;0.70;0.50;;;23.00;63.10;;;;;;4937363;29;20442;-70
2022/07/12 07:35:49;;;;;;;0.70;0.50;;;23.10;62.40;;;;;;4937151;29;20456;-70
2022/07/12 07:38:17;;;;;;;0.70;0.50;;;23.00;62.30;;;;;;4937323;29;20460;-70
2022/07/12 07:40:44;;;;;;;0.60;0.50;;;23.10;63.60;;;;;;4937733;29;20471;-70
2022/07/12 07:43:10;;;;;;;0.70;0.50;;;23.20;62.20;;;;;;4937941;29;20484;-70
2022/07/12 07:45:37;;;;;;;0.70;0.50;;;23.30;62.40;;;;;;4937529;29;20479;-69
2022/07/12 07:48:04;;;;;;;0.70;0.50;;;23.70;60.30;;;;;;4938099;29;20452;-70
2022/07/12 07:50:32;;;;;;;0.70;0.50;;;23.40;60.90;;;;;;4937679;29;20460;-69
2022/07/12 07:52:59;;;;;;;0.70;0.50;;;23.40;60.40;;;;;;4937152;29;20456;-69
2022/07/12 07:55:25;;;;;;;0.70;0.53;;;23.40;61.00;;;;;;4936440;29;20456;-70
2022/07/12 07:57:52;;;;;;;0.63;0.50;;;23.60;61.20;;;;;;4936323;29;20452;-70
2022/07/12 08:00:19;;;;;;;0.60;0.43;;;23.80;58.60;;;;;;4936276;29;20935;-70
2022/07/12 08:02:45;;;;;;;0.70;0.50;;;23.80;58.30;;;;;;4936308;29;20534;-70
2022/07/12 08:05:12;;;;;;;1.23;0.60;;;23.70;59.40;;;;;;4936530;29;20526;-70
2022/07/12 08:07:40;;;;;;;0.60;0.50;;;23.70;58.60;;;;;;4936394;29;20459;-70
2022/07/12 08:10:08;;;;;;;0.70;0.60;;;23.80;58.30;;;;;;4936362;29;20503;-69
2022/07/12 08:12:34;;;;;;;0.60;0.50;;;23.90;59.80;;;;;;4936324;29;20500;-70
2022/07/12 08:15:01;;;;;;;0.70;0.50;;;24.20;59.50;;;;;;4936360;29;20935;-70
2022/07/12 08:17:28;;;;;;;0.70;0.50;;;24.70;58.00;;;;;;4935930;29;20878;-70
2022/07/12 08:19:55;;;;;;;0.60;0.50;;;25.00;56.80;;;;;;4935925;29;20967;-70
2022/07/12 08:22:21;;;;;;;0.80;0.60;;;25.20;55.30;;;;;;4936138;29;20476;-70
2022/07/12 08:24:49;;;;;;;1.03;0.60;;;25.00;55.60;;;;;;4936133;29;20551;-70
2022/07/12 08:27:16;;;;;;;0.70;0.60;;;25.20;55.10;;;;;;4936211;29;20538;-70
2022/07/12 08:29:43;;;;;;;0.70;0.50;;;25.20;54.60;;;;;;4936173;29;20511;-70
2022/07/12 08:32:09;;;;;;;0.70;0.50;;;25.00;55.10;;;;;;4936299;29;20507;-70
2022/07/12 08:34:36;;;;;;;0.73;0.57;;;25.10;55.50;;;;;;4936037;29;20858;-70
2022/07/12 08:37:03;;;;;;;0.60;0.50;;;25.40;54.40;;;;;;4936207;29;20997;-70
2022/07/12 08:39:30;;;;;;;0.70;0.60;;;25.50;54.60;;;;;;4936620;29;20605;-70
2022/07/12 08:41:58;;;;;;;0.70;0.57;;;25.60;54.10;;;;;;4936161;29;20891;-69
2022/07/12 08:44:25;;;;;;;0.70;0.50;;;25.40;55.30;;;;;;4936198;29;20483;-70
2022/07/12 08:46:52;;;;;;;0.60;0.50;;;25.00;55.80;;;;;;4936086;29;20491;-71
2022/07/12 08:49:19;;;;;;;0.70;0.50;;;24.90;56.70;;;;;;4936070;29;20460;-72
2022/07/12 08:51:46;;;;;;;0.70;0.50;;;24.90;56.60;;;;;;4936039;29;20476;-69
2022/07/12 08:54:15;;;;;;;0.70;0.60;;;25.20;57.90;;;;;;4936227;29;20447;-69
2022/07/12 08:56:44;;;;;;;0.70;0.50;;;25.50;57.30;;;;;;4936194;29;20958;-69
2022/07/12 08:59:14;;;;;;;0.70;0.60;;;25.80;54.00;;;;;;4935927;29;20451;-72
2022/07/12 09:01:42;;;;;;;0.70;0.50;;;25.90;55.00;;;;;;4936410;29;20555;-72
2022/07/12 09:04:17;;;;;;;0.70;0.60;;;25.90;56.50;;;;;;4935972;29;20487;-71
2022/07/12 09:06:43;;;;;;;0.70;0.60;;;26.00;54.60;;;;;;4936576;29;20461;-71
2022/07/12 09:09:12;;;;;;;0.70;0.50;;;26.00;55.00;;;;;;4939255;29;20872;-72
2022/07/12 09:11:40;;;;;;;0.70;0.60;;;26.20;54.30;;;;;;4940156;29;20471;-71
2022/07/12 09:14:07;;;;;;;0.70;0.60;;;26.20;53.40;;;;;;4941302;29;20539;-72
2022/07/12 09:16:35;;;;;;;0.80;0.60;;;26.30;53.90;;;;;;4939577;29;20995;-71
2022/07/12 09:19:16;;;;;;;0.60;0.50;;;26.00;53.40;;;;;;4939571;29;20479;-73
2022/07/12 09:21:49;;;;;;;0.80;0.57;;;25.80;54.10;;;;;;4939419;29;20472;-72
2022/07/12 09:24:16;;;;;;;0.70;0.50;;;25.70;54.70;;;;;;4939867;29;20475;-72
2022/07/12 09:26:43;;;;;;;0.70;0.50;;;25.50;55.60;;;;;;4939575;29;20491;-71
2022/07/12 09:29:11;;;;;;;0.67;0.50;;;25.90;54.40;;;;;;4939150;29;21030;-71
2022/07/12 09:37:13;;;;;;;0.70;0.50;;;26.00;54.60;;;;;;4939461;29;20416;-71
2022/07/12 09:39:41;;;;;;;0.60;0.50;;;26.10;54.30;;;;;;4939127;29;20511;-72
2022/07/12 09:42:10;;;;;;;0.70;0.50;;;26.30;55.20;;;;;;4938730;29;20880;-71
2022/07/12 09:44:37;;;;;;;0.70;0.50;;;26.20;55.00;;;;;;4938989;29;20487;-71
2022/07/12 09:47:12;;;;;;;0.60;0.50;;;26.00;55.00;;;;;;4939106;29;20872;-72
2022/07/12 09:49:39;;;;;;;0.70;0.60;;;26.00;54.80;;;;;;4939128;29;20439;-72
2022/07/12 09:52:10;;;;;;;0.70;0.50;;;26.30;54.80;;;;;;4939207;29;20471;-71
2022/07/12 09:54:41;;;;;;;0.70;0.63;;;26.30;53.00;;;;;;4939055;29;20432;-71
2022/07/12 09:57:17;;;;;;;0.70;0.50;;;26.70;52.50;;;;;;4939107;29;20870;-70
2022/07/12 09:59:45;;;;;;;0.70;0.50;;;26.80;51.10;;;;;;4938849;29;20816;-72
2022/07/12 10:02:15;;;;;;;0.70;0.50;;;26.90;52.80;;;;;;4938325;29;20906;-71
2022/07/12 10:04:43;;;;;;;0.90;0.50;;;27.00;51.80;;;;;;4938655;29;20502;-70
2022/07/12 10:07:12;;;;;;;0.70;0.50;;;27.20;52.00;;;;;;4938585;29;20452;-71
2022/07/12 10:09:40;;;;;;;0.70;0.50;;;27.30;53.30;;;;;;4938522;29;20452;-72
2022/07/12 10:12:08;;;;;;;0.70;0.60;;;27.20;51.80;;;;;;4938470;29;20472;-71
2022/07/12 10:14:35;;;;;;;1.20;0.60;;;26.80;52.00;;;;;;4938459;29;20456;-72
2022/07/12 10:17:08;;;;;;;0.60;0.50;;;26.60;53.30;;;;;;4938058;29;20817;-72
2022/07/12 10:19:37;;;;;;;0.70;0.50;;;26.80;52.40;;;;;;4938280;29;20553;-71
2022/07/12 10:22:06;;;;;;;0.63;0.50;;;26.40;51.50;;;;;;4938264;29;20470;-71
2022/07/12 10:24:55;;;;;;;0.77;0.50;;;26.50;52.20;;;;;;4938171;29;20519;-72
2022/07/12 10:27:32;;;;;;;0.70;0.50;;;26.50;52.30;;;;;;4937995;29;20908;-72
2022/07/12 10:30:23;;;;;;;0.70;0.50;;;26.40;52.10;;;;;;4937953;29;20451;-71
2022/07/12 10:32:53;;;;;;;0.60;0.50;;;26.20;52.10;;;;;;4938182;29;20436;-71
2022/07/12 10:35:22;;;;;;;0.70;0.50;;;26.30;53.20;;;;;;4938173;29;20494;-71
2022/07/12 10:38:14;;;;;;;0.60;0.50;;;26.70;52.60;;;;;;4937830;29;21018;-72
2022/07/12 10:40:43;;;;;;;0.60;0.50;;;26.80;51.80;;;;;;4938031;29;20451;-72
2022/07/12 10:43:18;;;;;;;0.60;0.50;;;27.00;51.50;;;;;;4938039;29;20546;-73
2022/07/12 10:45:46;;;;;;;0.70;0.50;;;27.00;51.80;;;;;;4937901;29;20474;-74
2022/07/12 10:48:24;;;;;;;0.70;0.60;;;26.90;51.50;;;;;;4937811;29;20464;-74
2022/07/12 10:50:58;;;;;;;0.70;0.60;;;26.50;53.10;;;;;;4937706;29;20908;-72
2022/07/12 10:53:27;;;;;;;0.70;0.50;;;26.40;52.80;;;;;;4938003;29;20439;-73
2022/07/12 10:56:13;;;;;;;0.70;0.60;;;26.40;53.00;;;;;;4938001;29;20444;-75
2022/07/12 10:58:42;;;;;;;0.70;0.50;;;26.30;52.30;;;;;;4937834;29;20450;-73
2022/07/12 11:01:10;;;;;;;0.70;0.70;;;26.70;53.40;;;;;;4937838;29;20487;-74
2022/07/12 11:03:41;;;;;;;0.70;0.50;;;26.90;52.40;;;;;;4937612;29;20845;-72
2022/07/12 11:06:11;;;;;;;0.70;0.50;;;26.90;50.80;;;;;;4937291;29;20456;-71
2022/07/12 11:08:55;;;;;;;0.60;0.50;;;26.60;51.40;;;;;;4937211;29;20858;-72
2022/07/12 11:11:23;;;;;;;1.87;0.50;;;26.50;52.70;;;;;;4937300;29;20554;-73
2022/07/12 11:13:50;;;;;;;0.70;0.50;;;26.80;52.00;;;;;;4937664;29;20507;-73
2022/07/12 11:16:17;;;;;;;0.70;0.50;;;26.70;51.90;;;;;;4937454;29;20576;-72
2022/07/12 11:18:45;;;;;;;0.70;0.60;;;27.10;51.40;;;;;;4937377;29;20542;-71
2022/07/12 11:21:14;;;;;;;0.70;0.50;;;27.30;50.70;;;;;;4937170;29;20479;-72
2022/07/12 11:23:41;;;;;;;0.60;0.50;;;27.50;51.10;;;;;;4937265;29;20519;-71
2022/07/12 11:26:10;;;;;;;0.60;0.50;;;27.40;51.10;;;;;;4937191;29;20531;-71
2022/07/12 11:28:37;;;;;;;1.00;0.60;;;27.40;50.20;;;;;;4937837;29;20464;-72
2022/07/12 11:31:06;;;;;;;0.60;0.50;;;27.40;50.80;;;;;;4936467;29;20530;-72
2022/07/12 11:33:34;;;;;;;0.70;0.50;;;27.70;51.20;;;;;;4937062;29;20455;-71
2022/07/12 11:36:03;;;;;;;0.70;0.50;;;28.00;49.30;;;;;;4936950;29;20466;-71
2022/07/12 11:38:32;;;;;;;0.70;0.60;;;28.20;49.80;;;;;;4936999;29;20507;-71
2022/07/12 11:41:00;;;;;;;0.60;0.47;;;28.10;49.60;;;;;;4936620;29;20896;-71
2022/07/12 11:43:27;;;;;;;0.63;0.50;;;28.20;48.60;;;;;;4936819;29;20452;-70
2022/07/12 11:45:55;;;;;;;0.67;0.53;;;28.00;50.60;;;;;;4936753;29;20926;-71
2022/07/12 11:48:22;;;;;;;0.60;0.50;;;28.00;49.70;;;;;;4936891;29;20444;-71
2022/07/12 11:50:51;;;;;;;0.90;0.50;;;27.90;48.70;;;;;;4936700;29;20468;-71
2022/07/12 11:53:20;;;;;;;0.70;0.50;;;27.80;48.50;;;;;;4936766;29;20455;-71
2022/07/12 11:55:50;;;;;;;0.60;0.50;;;28.10;48.70;;;;;;4936614;29;20444;-71
2022/07/12 11:58:17;;;;;;;0.60;0.50;;;27.90;48.30;;;;;;4936515;29;20447;-70
2022/07/12 12:00:45;;;;;;;0.60;0.50;;;27.60;49.90;;;;;;4936247;29;20476;-71
2022/07/12 12:03:12;;;;;;;0.70;0.57;;;27.20;49.50;;;;;;4936100;29;20883;-71
2022/07/12 12:05:39;;;;;;;0.70;0.50;;;27.30;51.20;;;;;;4936000;29;20907;-71
2022/07/12 12:08:07;;;;;;;0.70;0.50;;;27.80;49.70;;;;;;4936397;29;20502;-70
2022/07/12 12:10:34;;;;;;;0.60;0.50;;;28.00;47.90;;;;;;4936335;29;20451;-70
2022/07/12 12:13:03;;;;;;;0.60;0.50;;;27.70;47.80;;;;;;4936425;29;20503;-70
2022/07/12 12:15:31;;;;;;;0.67;0.50;;;28.00;49.00;;;;;;4936368;29;20452;-71
2022/07/12 12:18:00;;;;;;;0.60;0.50;;;28.30;47.90;;;;;;4936574;29;20487;-71
2022/07/12 12:20:29;;;;;;;0.60;0.50;;;28.40;47.10;;;;;;4936197;29;20503;-70
2022/07/12 12:22:56;;;;;;;0.70;0.50;;;28.50;46.60;;;;;;4936330;29;20456;-71
2022/07/12 12:25:24;;;;;;;1.27;0.60;;;28.30;47.40;;;;;;4935844;29;20998;-70
2022/07/12 12:27:55;;;;;;;0.70;0.50;;;28.40;47.20;;;;;;4936139;29;20456;-70
2022/07/12 12:30:24;;;;;;;0.70;0.50;;;28.00;47.70;;;;;;4936254;29;20444;-71
2022/07/12 12:32:54;;;;;;;0.60;0.50;;;27.70;48.70;;;;;;4936230;29;20519;-71
2022/07/12 12:35:22;;;;;;;0.70;0.50;;;27.60;48.90;;;;;;4936200;29;20514;-70
2022/07/12 12:37:54;;;;;;;0.67;0.50;;;27.30;49.10;;;;;;4936134;29;20452;-70
2022/07/12 12:40:22;;;;;;;0.70;0.50;;;27.30;48.30;;;;;;4936131;29;20444;-71
2022/07/12 12:42:50;;;;;;;0.60;0.50;;;27.40;49.00;;;;;;4938764;29;20462;-70
2022/07/12 12:45:25;;;;;;;0.63;0.50;;;27.50;47.70;;;;;;4939813;29;20999;-70
2022/07/12 12:47:57;;;;;;;0.60;0.50;;;27.60;48.00;;;;;;4940050;29;20443;-71
2022/07/12 12:50:43;;;;;;;0.70;0.60;;;27.80;48.10;;;;;;4939622;29;20847;-71
2022/07/12 12:53:15;;;;;;;0.70;0.57;;;27.80;48.30;;;;;;4939790;29;20436;-71
2022/07/12 12:55:43;;;;;;;0.70;0.60;;;28.20;48.40;;;;;;4939641;29;20825;-71
2022/07/12 12:58:10;;;;;;;0.80;0.50;;;28.50;47.10;;;;;;4939528;29;20824;-71
2022/07/12 13:00:40;;;;;;;0.60;0.40;;;28.90;46.30;;;;;;4939328;29;21014;-71
2022/07/12 13:03:07;;;;;;;0.60;0.50;;;28.90;46.40;;;;;;4939742;29;20444;-71
2022/07/12 13:05:34;;;;;;;0.63;0.50;;;29.00;46.30;;;;;;4939678;29;20491;-71
2022/07/12 13:08:02;;;;;;;0.70;0.50;;;29.00;46.80;;;;;;4939746;29;20464;-71
2022/07/12 13:10:29;;;;;;;0.70;0.50;;;29.40;47.30;;;;;;4939797;29;20458;-71
2022/07/12 13:12:56;;;;;;;0.70;0.50;;;29.20;45.10;;;;;;4939348;29;21002;-70
2022/07/12 13:15:22;;;;;;;0.70;0.50;;;28.70;45.30;;;;;;4939172;29;20943;-70
2022/07/12 13:17:50;;;;;;;0.70;0.50;;;28.30;46.60;;;;;;4939397;29;20459;-71
2022/07/12 13:20:17;;;;;;;0.70;0.50;;;28.30;45.90;;;;;;4939241;29;20511;-71
2022/07/12 13:22:45;;;;;;;0.60;0.50;;;28.10;47.10;;;;;;4939740;29;20896;-71
2022/07/12 13:25:13;;;;;;;0.70;0.50;;;28.00;47.30;;;;;;4939447;29;20487;-71
2022/07/12 13:27:41;;;;;;;0.70;0.50;;;27.80;46.90;;;;;;4939856;29;20456;-71
2022/07/12 13:30:10;;;;;;;1.00;0.60;;;27.80;46.40;;;;;;4939224;29;20935;-71
2022/07/12 13:32:37;;;;;;;0.60;0.50;;;28.30;48.00;;;;;;4939221;29;20922;-71
2022/07/12 13:35:07;;;;;;;0.70;0.50;;;28.60;46.00;;;;;;4939650;29;20452;-72
2022/07/12 13:37:34;;;;;;;0.70;0.50;;;28.70;45.00;;;;;;4939499;29;20440;-71
2022/07/12 13:40:17;;;;;;;0.70;0.60;;;28.80;46.10;;;;;;4939307;29;20531;-72
2022/07/12 13:42:46;;;;;;;0.70;0.50;;;28.80;45.90;;;;;;4939111;29;20535;-71
2022/07/12 13:45:15;;;;;;;0.70;0.50;;;28.90;47.00;;;;;;4938986;29;21003;-72
2022/07/12 13:47:42;;;;;;;0.70;0.50;;;29.00;45.40;;;;;;4939157;29;20538;-71
2022/07/12 13:50:17;;;;;;;0.70;0.50;;;29.30;45.10;;;;;;4939265;29;20456;-72
2022/07/12 13:52:45;;;;;;;0.60;0.50;;;29.50;44.50;;;;;;4939342;29;20572;-70
2022/07/12 13:55:15;;;;;;;0.70;0.50;;;29.40;45.20;;;;;;4937914;29;20958;-71
2022/07/12 13:57:42;;;;;;;0.70;0.50;;;29.20;45.10;;;;;;4938761;29;20456;-71
2022/07/12 14:00:11;;;;;;;1.10;0.60;;;28.70;46.10;;;;;;4938653;29;20862;-72
2022/07/12 14:02:39;;;;;;;0.67;0.50;;;29.00;45.60;;;;;;4938314;29;20494;-71
2022/07/12 14:05:07;;;;;;;0.60;0.50;;;29.30;45.10;;;;;;4939191;29;20490;-71
2022/07/12 14:07:35;;;;;;;0.60;0.50;;;29.70;44.10;;;;;;4938808;29;20530;-72
2022/07/12 14:10:02;;;;;;;0.70;0.50;;;29.50;43.00;;;;;;4938886;29;20471;-71
2022/07/12 14:12:29;;;;;;;0.60;0.50;;;29.50;44.80;;;;;;4938420;29;20476;-70
2022/07/12 14:17:40;;;;;;;0.70;0.50;;;29.30;45.10;;;;;;4938253;29;20411;-72
2022/07/12 14:20:08;;;;;;;1.27;0.60;;;29.20;45.70;;;;;;4938044;29;20931;-73
2022/07/12 14:22:37;;;;;;;0.70;0.50;;;29.10;46.10;;;;;;4938305;29;20531;-74
2022/07/12 14:25:04;;;;;;;0.60;0.50;;;29.10;45.80;;;;;;4937909;29;21077;-72
2022/07/12 14:27:31;;;;;;;0.70;0.50;;;28.90;45.30;;;;;;4938245;29;20456;-72
2022/07/12 14:29:58;;;;;;;0.63;0.50;;;29.10;45.40;;;;;;4938226;29;20455;-73
2022/07/12 14:32:24;;;;;;;0.70;0.50;;;29.30;46.10;;;;;;4938017;29;20526;-73
2022/07/12 14:34:51;;;;;;;0.60;0.50;;;29.60;44.60;;;;;;4938250;29;20519;-72
2022/07/12 14:37:18;;;;;;;0.70;0.50;;;29.20;45.20;;;;;;4938507;29;20452;-73
2022/07/12 14:39:48;;;;;;;0.70;0.60;;;29.20;45.30;;;;;;4938384;29;20507;-73
2022/07/12 14:42:14;;;;;;;0.60;0.50;;;29.60;45.00;;;;;;4938043;29;20987;-72
2022/07/12 14:44:41;;;;;;;0.67;0.50;;;29.90;42.90;;;;;;4938240;29;20451;-73
2022/07/12 14:47:08;;;;;;;1.20;0.60;;;30.00;43.70;;;;;;4938071;29;20495;-71
2022/07/12 14:49:36;;;;;;;0.70;0.50;;;30.20;43.30;;;;;;4937933;29;21023;-72
2022/07/12 14:52:03;;;;;;;0.70;0.50;;;29.70;43.40;;;;;;4938093;29;20471;-72
2022/07/12 14:54:30;;;;;;;1.90;1.13;;;29.40;43.80;;;;;;4938047;29;20868;-73
2022/07/12 14:56:58;;;;;;;0.70;0.50;;;29.30;44.30;;;;;;4937792;29;20495;-72
2022/07/12 14:59:25;;;;;;;0.70;0.50;;;29.70;44.70;;;;;;4937647;29;20459;-72
2022/07/12 15:01:52;;;;;;;0.60;0.50;;;30.10;43.60;;;;;;4937297;29;20636;-72
2022/07/12 15:04:18;;;;;;;0.80;0.50;;;29.90;44.10;;;;;;4937554;29;20451;-73
2022/07/12 15:06:45;;;;;;;0.70;0.63;;;30.10;43.90;;;;;;4936483;29;20487;-73
2022/07/12 15:09:12;;;;;;;0.60;0.50;;;30.30;42.70;;;;;;4937501;29;20499;-73
2022/07/12 15:11:38;;;;;;;0.60;0.50;;;30.50;42.60;;;;;;4937395;29;20503;-73
2022/07/12 15:14:06;;;;;;;0.60;0.50;;;30.40;42.10;;;;;;4938828;29;20459;-72
2022/07/12 15:16:33;;;;;;;0.70;0.57;;;30.50;41.90;;;;;;4937340;29;20455;-73
2022/07/12 15:19:00;;;;;;;0.60;0.50;;;30.20;42.70;;;;;;4937005;29;20455;-72
2022/07/12 15:21:26;;;;;;;0.70;0.50;;;30.30;42.50;;;;;;4937167;29;20535;-72
2022/07/12 15:23:53;;;;;;;0.70;0.50;;;29.90;43.60;;;;;;4937192;29;20540;-73
2022/07/12 15:26:20;;;;;;;0.70;0.60;;;29.70;44.50;;;;;;4937175;29;20479;-73
2022/07/12 15:28:52;;;;;;;0.63;0.50;;;30.00;45.10;;;;;;4937216;29;20444;-73
2022/07/12 15:31:20;;;;;;;0.70;0.50;;;30.00;44.00;;;;;;4936977;29;20522;-73
2022/07/12 15:33:47;;;;;;;0.70;0.60;;;29.50;44.80;;;;;;4936744;29;20945;-72
2022/07/12 15:36:14;;;;;;;0.63;0.50;;;29.20;45.20;;;;;;4937020;29;20519;-73
2022/07/12 15:38:43;;;;;;;0.70;0.50;;;29.10;44.70;;;;;;4936942;29;20487;-72
2022/07/12 15:41:10;;;;;;;0.70;0.50;;;29.00;46.20;;;;;;4936879;29;20516;-73
2022/07/12 15:43:38;;;;;;;0.70;0.50;;;29.30;45.60;;;;;;4937121;29;20456;-75
2022/07/12 15:46:05;;;;;;;0.67;0.50;;;29.60;44.60;;;;;;4936981;29;20479;-73
2022/07/12 15:48:33;;;;;;;0.70;0.50;;;29.80;44.30;;;;;;4936765;29;20455;-73
2022/07/12 15:51:00;;;;;;;0.70;0.50;;;30.10;44.50;;;;;;4936564;29;20503;-74
2022/07/12 15:53:28;;;;;;;0.70;0.50;;;30.30;44.60;;;;;;4936708;29;20460;-73
2022/07/12 15:55:57;;;;;;;0.70;0.60;;;30.50;42.80;;;;;;4936674;29;20444;-73
2022/07/12 15:58:26;;;;;;;0.60;0.50;;;30.70;43.00;;;;;;4936654;29;20456;-73
2022/07/12 16:00:52;;;;;;;0.60;0.50;;;30.70;42.80;;;;;;4936370;29;20472;-74
2022/07/12 16:03:19;;;;;;;0.70;0.53;;;30.50;43.70;;;;;;4936272;29;20912;-73